Flight Track Log - Related Links

Times and Time Zones

All times are in EDT time to prevent confusion due to time zone crossing. See the ACA860 flight status page for this flight to view local times or setup timezone preferences in your user account.

Time Position Orientation Groundspeed Altitude Reporting Facility
EDT Latitude Longitude Course Direction KTS MPH feet Rate Location/Type
Fri 10:56:00 PM 44.8167 -63.5500 59° Northeast 170 196 3,600  Level Moncton Center
Fri 10:57:00 PM 44.7667 -63.5500 180° South 210 242 5,800 2,900 Climbing Moncton Center
Fri 10:58:00 PM 45.0667 -62.9984 90° East  Level FlightAware Approximate
Fri 10:58:00 PM 44.7333 -63.4500 115° Southeast 270 311 9,400  Level Moncton Center
Fri 10:59:00 PM 45.1345 -62.8341 57° Northeast  Level FlightAware Approximate
Fri 10:59:00 PM 44.7667 -63.3667 61° Northeast 330 380 11,400  Level Moncton Center
Fri 11:00:00 PM 45.1920 -62.6626 59° Northeast  Level FlightAware Approximate
Fri 11:00:00 PM 44.8333 -63.2333 55° Northeast 390 449 14,400  Level Moncton Center
Fri 11:01:00 PM 45.2612 -62.4965 59° Northeast  Level FlightAware Approximate
Fri 11:01:00 PM 44.9167 -63.1000 49° Northeast 420 483 17,200  Level Moncton Center
Fri 11:02:00 PM 44.9833 -62.9833 51° Northeast 430 495 20,200 2,350 Climbing Moncton Center
Fri 11:03:00 PM 45.0667 -62.8167 55° Northeast 470 541 21,900 2,050 Climbing Moncton Center
Fri 11:04:00 PM 45.1500 -62.6667 52° Northeast 490 564 24,300 2,000 Climbing Moncton Center
Fri 11:05:00 PM 45.2167 -62.5000 60° Northeast 510 587 25,900 1,550 Climbing Moncton Center
Fri 11:06:00 PM 45.3167 -62.3000 55° Northeast 550 633 27,400 1,500 Climbing Moncton Center
Fri 11:07:00 PM 45.4167 -62.1333 49° Northeast 570 656 28,900 1,900 Climbing Moncton Center
Fri 11:08:00 PM 45.5167 -61.9333 54° Northeast 590 679 31,200 2,100 Climbing Moncton Center
Fri 11:09:00 PM 45.6167 -61.7667 49° Northeast 580 667 33,100 1,500 Climbing Moncton Center
Fri 11:10:00 PM 45.7000 -61.5667 59° Northeast 590 679 34,200 900 Climbing Moncton Center
Fri 11:11:00 PM 45.8000 -61.3667 54° Northeast 600 690 34,900 400 Climbing Moncton Center
Fri 11:12:00 PM 45.9167 -61.1667 50° Northeast 620 713 35,000 50 Climbing Moncton Center
Fri 11:13:00 PM 46.0000 -60.9833 57° Northeast 610 702 35,000  Level Moncton Center
Fri 11:14:00 PM 46.1000 -60.7833 54° Northeast 600 690 35,000  Level Moncton Center
Fri 11:15:00 PM 46.2000 -60.5833 54° Northeast 600 690 35,000  Level Moncton Center
Fri 11:16:00 PM 46.2833 -60.3833 59° Northeast 600 690 35,000  Level Moncton Center
Fri 11:17:00 PM 46.4000 -60.1667 52° Northeast 600 690 35,000  Level Moncton Center
Fri 11:18:00 PM 46.5000 -59.9667 54° Northeast 600 690 35,000  Level Moncton Center
Fri 11:19:00 PM 46.5833 -59.8000 54° Northeast 600 690 35,000  Level Moncton Center
Fri 11:19:55 PM 46.6833 -59.6000 54° Northeast 600 690 35,000  Level Gander Center
Fri 11:20:55 PM 46.7667 -59.4000 59° Northeast 600 690 35,000  Level Gander Center
Fri 11:22:00 PM 46.8833 -59.1833 52° Northeast 600 690 35,000  Level Moncton Center
Fri 11:22:55 PM 46.9500 -59.0000 62° Northeast 590 679 35,000  Level Gander Center
Fri 11:23:55 PM 47.0500 -58.8000 54° Northeast 590 679 35,000  Level Gander Center
Fri 11:25:00 PM 47.1500 -58.5833 56° Northeast 580 667 35,000  Level Moncton Center
Fri 11:26:00 PM 47.2333 -58.3833 56° Northeast 590 679 35,000  Level Moncton Center
Fri 11:26:55 PM 47.3167 -58.2000 62° Northeast 590 679 35,000  Level Gander Center
Fri 11:27:55 PM 47.4167 -58.0000 62° Northeast 590 679 35,000  Level Gander Center
Fri 11:28:00 PM 47.4167 -57.9833 62° Northeast 590 679 35,000  Level Moncton Center
Fri 11:29:00 PM 47.5000 -57.7833 62° Northeast 580 667 35,000  Level Moncton Center
Fri 11:30:40 PM 47.6640 -57.4570 56° Northeast 590 679 35,000  Level FlightAware ADS-B
Fri 11:31:30 PM 47.7210 -57.2960 62° Northeast 591 680 35,000  Level FlightAware ADS-B
Fri 11:32:10 PM 47.7770 -57.1370 62° Northeast 590 679 35,000  Level FlightAware ADS-B
Fri 11:33:00 PM 47.8410 -56.9570 62° Northeast 589 678 35,000  Level FlightAware ADS-B
Fri 11:33:40 PM 47.8920 -56.8160 62° Northeast 588 677 35,000  Level FlightAware ADS-B
Fri 11:34:25 PM 47.9480 -56.6580 62° Northeast 585 673 35,000  Level FlightAware ADS-B
Fri 11:35:20 PM 48.0140 -56.4710 62° Northeast 582 670 35,000  Level FlightAware ADS-B
Fri 11:36:00 PM 48.0640 -56.3290 62° Northeast 35,000  Level FlightAware ADS-B
Fri 11:36:45 PM 48.1180 -56.1750 62° Northeast 576 663 35,000  Level FlightAware ADS-B
Fri 11:37:40 PM 48.1850 -55.9800 63° Northeast 574 661 35,000  Level FlightAware ADS-B
Fri 11:38:20 PM 48.2360 -55.8280 63° Northeast 572 658 35,000  Level FlightAware ADS-B
Fri 11:39:05 PM 48.2920 -55.6640 63° Northeast 574 661 35,000  Level FlightAware ADS-B
Fri 11:39:45 PM 48.3400 -55.5230 63° Northeast 573 659 35,000  Level FlightAware ADS-B
Fri 11:40:40 PM 48.4000 -55.3430 63° Northeast 573 659 35,000  Level FlightAware ADS-B
Fri 11:41:25 PM 48.4580 -55.1710 63° Northeast 572 658 35,000  Level FlightAware ADS-B
Fri 11:42:00 PM 48.4970 -55.0520 64° Northeast 571 657 35,000  Level FlightAware ADS-B
Fri 11:43:00 PM 48.5650 -54.8470 63° Northeast 568 654 35,000  Level FlightAware ADS-B
Fri 11:44:10 PM 48.6450 -54.6010 64° Northeast 568 654 35,000  Level FlightAware ADS-B
Fri 11:44:12 PM 48.6333 -54.5500 65° Northeast 570 656 35,000  Level Gander Center
Fri 11:45:20 PM 48.7270 -54.3480 64° Northeast 566 651 35,000 -118 Level FlightAware ADS-B
Fri 11:46:45 PM 48.8240 -54.0410 64° Northeast 560 644 34,700 -253 Descending FlightAware ADS-B
Fri 11:46:55 PM 48.8333 -53.9667 65° Northeast 560 644 34,600 -514 Descending Gander Center
Fri 11:47:55 PM 48.9000 -53.8010 64° Northeast 539 620 34,100 -277 Descending FlightAware ADS-B
Fri 11:49:05 PM 48.9740 -53.5620 65° Northeast 530 610 34,000 -78 Descending FlightAware ADS-B
Fri 11:49:12 PM 48.9667 -53.4833 65° Northeast 530 610 34,000  Level Gander Center
Fri 11:50:00 PM 50.0000 -50.0000 77° East 538 619 34,000  Level ETMS Enhanced Traffic Management System
Fri 11:50:15 PM 49.0480 -53.3230 65° Northeast 537 618 34,000  Level FlightAware ADS-B
Fri 11:50:55 PM 49.0833 -53.1333 77° East 540 621 34,000  Level Gander Center
Fri 11:51:25 PM 49.1210 -53.0840 65° Northeast 542 624 34,000  Level FlightAware ADS-B
Fri 11:52:10 PM 49.1730 -52.9120 65° Northeast 544 626 34,000  Level FlightAware ADS-B
Fri 11:52:50 PM 49.2140 -52.7750 65° Northeast 543 625 34,000  Level FlightAware ADS-B
Fri 11:53:30 PM 49.2530 -52.6460 65° Northeast 543 625 34,000  Level FlightAware ADS-B
Fri 11:54:15 PM 49.2990 -52.4900 66° East 540 621 34,000  Level FlightAware ADS-B
Fri 11:55:10 PM 49.3520 -52.3100 66° East 535 616 34,000  Level FlightAware ADS-B
Fri 11:55:12 PM 49.3500 -52.2333 66° East 540 621 34,000  Level Gander Center
Fri 11:56:20 PM 49.4240 -52.0660 77° East 530 610 34,000  Level FlightAware ADS-B
Fri 11:57:30 PM 49.4930 -51.8260 66° East 528 608 34,000  Level FlightAware ADS-B
Fri 11:58:05 PM 49.5280 -51.7050 66° East 531 611 34,000  Level FlightAware ADS-B
Fri 11:58:50 PM 49.5760 -51.5380 66° East 531 611 34,000  Level FlightAware ADS-B
Fri 11:59:30 PM 49.6100 -51.4210 66° East 531 611 34,000  Level FlightAware ADS-B
Sat 12:00:10 AM 49.6440 -51.3030 66° East 531 611 34,000  Level FlightAware ADS-B
Sat 12:01:00 AM 49.6860 -51.1550 66° East 531 611 34,000  Level FlightAware ADS-B
Sat 12:01:40 AM 49.7200 -51.0370 66° East 531 611 34,000  Level FlightAware ADS-B
Sat 12:02:20 AM 49.7540 -50.9190 66° East 531 611 34,000  Level FlightAware ADS-B
Sat 12:03:00 AM 49.7880 -50.8010 66° East 531 611 34,000  Level FlightAware ADS-B
Sat 12:03:40 AM 49.8220 -50.6830 66° East 531 611 34,000  Level FlightAware ADS-B
Sat 12:04:30 AM 49.8650 -50.5350 66° East 531 611 34,000  Level FlightAware ADS-B
Sat 12:05:10 AM 49.8990 -50.4170 66° East 531 611 34,000  Level FlightAware ADS-B
Sat 12:05:50 AM 49.9330 -50.2980 66° East 531 611 34,000  Level FlightAware ADS-B
Sat 12:06:40 AM 49.9750 -50.1500 66° East 531 611 34,000  Level FlightAware ADS-B
Sat 12:07:20 AM 50.0090 -50.0310 66° East 531 611 34,000  Level FlightAware ADS-B
Sat 12:07:23 AM 50.0000 -50.0000 77° East 526 605 34,000  Level ETMS Enhanced Traffic Management System
Sat 12:07:55 AM 50.0333 -49.5667 77° East 530 610 34,000  Level Gander Center
Sat 12:08:00 AM 50.0430 -49.9120 66° East 531 611 34,000  Level FlightAware ADS-B
Sat 12:08:12 AM 50.0500 -49.4833 73° East 530 610 34,000  Level Gander Center
Sat 12:09:12 AM 50.0833 -49.2667 76° East 540 621 34,000  Level Gander Center
Sat 12:10:12 AM 50.1000 -49.0500 83° East 530 610 34,000  Level Gander Center
Sat 12:11:12 AM 50.1500 -48.8000 73° East 530 610 34,000  Level Gander Center
Sat 12:12:12 AM 50.1667 -48.5833 83° East 530 610 34,000  Level Gander Center
Sat 12:13:12 AM 50.2000 -48.3667 76° East 530 610 34,000  Level Gander Center
Sat 12:13:55 AM 50.2167 -48.2000 81° East 520 598 34,000  Level Gander Center
Sat 12:14:55 AM 50.2500 -47.9833 76° East 520 598 34,000  Level Gander Center
Sat 12:15:12 AM 50.2667 -47.9167 69° East 520 598 34,000  Level Gander Center
Sat 12:17:00 AM 50.3155 -47.5359 79° East  Level FlightAware Approximate
Sat 12:24:00 AM 50.4929 -46.0480 80° East  Level FlightAware Approximate
Sat 12:25:00 AM 50.5162 -45.8344 80° East  Level FlightAware Approximate
Sat 12:26:00 AM 50.5391 -45.6205 80° East  Level FlightAware Approximate
Sat 12:27:00 AM 50.5617 -45.4065 81° East  Level FlightAware Approximate
Sat 12:28:00 AM 50.5838 -45.1923 81° East  Level FlightAware Approximate
Sat 12:29:00 AM 50.6056 -44.9779 81° East  Level FlightAware Approximate
Sat 12:30:00 AM 50.6272 -44.7633 81° East  Level FlightAware Approximate
Sat 12:31:00 AM 50.6483 -44.5485 81° East  Level FlightAware Approximate
Sat 12:32:00 AM 50.6690 -44.3335 81° East  Level FlightAware Approximate
Sat 12:33:00 AM 50.6894 -44.1184 81° East  Level FlightAware Approximate
Sat 12:34:00 AM 50.7093 -43.9030 82° East  Level FlightAware Approximate
Sat 12:35:00 AM 50.7289 -43.6875 82° East  Level FlightAware Approximate
Sat 12:36:00 AM 50.7481 -43.4718 82° East  Level FlightAware Approximate
Sat 12:37:00 AM 50.7668 -43.2560 82° East  Level FlightAware Approximate
Sat 12:38:00 AM 50.7852 -43.0399 82° East  Level FlightAware Approximate
Sat 12:39:00 AM 50.8031 -42.8237 82° East  Level FlightAware Approximate
Sat 12:40:00 AM 50.8207 -42.6073 83° East  Level FlightAware Approximate
Sat 12:41:00 AM 50.8378 -42.3908 83° East  Level FlightAware Approximate
Sat 12:42:00 AM 50.8546 -42.1741 83° East  Level FlightAware Approximate
Sat 12:43:00 AM 50.8710 -41.9572 83° East  Level FlightAware Approximate
Sat 12:44:00 AM 50.8869 -41.7402 83° East  Level FlightAware Approximate
Sat 12:45:00 AM 50.9025 -41.5231 83° East  Level FlightAware Approximate
Sat 12:46:00 AM 50.9176 -41.3058 84° East  Level FlightAware Approximate
Sat 12:47:00 AM 50.9324 -41.0884 84° East  Level FlightAware Approximate
Sat 12:48:00 AM 50.9467 -40.8708 84° East  Level FlightAware Approximate
Sat 12:49:00 AM 50.9607 -40.6531 84° East  Level FlightAware Approximate
Sat 12:50:00 AM 50.9742 -40.4353 84° East  Level FlightAware Approximate
Sat 12:51:00 AM 50.9873 -40.2173 84° East  Level FlightAware Approximate
Sat 12:52:00 AM 51.0001 -39.9993 77° East  Level FlightAware Approximate
Sat 12:52:54 AM 51.0000 -40.0000 77° East 503 579 34,000  Level ETMS Enhanced Traffic Management System
Sat 12:53:00 AM 51.0310 -39.7857 77° East  Level FlightAware Approximate
Sat 12:54:00 AM 51.0614 -39.5719 77° East  Level FlightAware Approximate
Sat 12:55:00 AM 51.0915 -39.3578 77° East  Level FlightAware Approximate
Sat 12:56:00 AM 51.1212 -39.1434 77° East  Level FlightAware Approximate
Sat 12:57:00 AM 51.1505 -38.9287 78° East  Level FlightAware Approximate
Sat 12:58:00 AM 51.2394 -38.2570 78° East 503 579 34,000  Level FlightAware Transoceanic
Sat 12:59:00 AM 51.2675 -38.0378 79° East 503 579 34,000  Level FlightAware Transoceanic
Sat 01:00:00 AM 51.2952 -37.8185 79° East 503 579 34,000  Level FlightAware Transoceanic
Sat 01:01:00 AM 51.3225 -37.5988 79° East 503 579 34,000  Level FlightAware Transoceanic
Sat 01:02:00 AM 51.3493 -37.3789 79° East 503 579 34,000  Level FlightAware Transoceanic
Sat 01:03:00 AM 51.3758 -37.1587 79° East 503 579 34,000  Level FlightAware Transoceanic
Sat 01:04:00 AM 51.4018 -36.9383 79° East 503 579 34,000  Level FlightAware Transoceanic
Sat 01:05:00 AM 51.4274 -36.7176 80° East 503 579 34,000  Level FlightAware Transoceanic
Sat 01:06:00 AM 51.4527 -36.4967 80° East 503 579 34,000  Level FlightAware Transoceanic
Sat 01:07:00 AM 51.4775 -36.2755 80° East 503 579 34,000  Level FlightAware Transoceanic
Sat 01:08:00 AM 51.5018 -36.0541 80° East 503 579 34,000  Level FlightAware Transoceanic
Sat 01:09:00 AM 51.5258 -35.8325 80° East 503 579 34,000  Level FlightAware Transoceanic
Sat 01:10:00 AM 51.5493 -35.6106 80° East 503 579 34,000  Level FlightAware Transoceanic
Sat 01:11:00 AM 51.5725 -35.3885 81° East 503 579 34,000  Level FlightAware Transoceanic
Sat 01:12:00 AM 51.5952 -35.1662 81° East 503 579 34,000  Level FlightAware Transoceanic
Sat 01:13:00 AM 51.6175 -34.9437 81° East 503 579 34,000  Level FlightAware Transoceanic
Sat 01:14:00 AM 51.6393 -34.7210 81° East 503 579 34,000  Level FlightAware Transoceanic
Sat 01:15:00 AM 51.6608 -34.4980 81° East 503 579 34,000  Level FlightAware Transoceanic
Sat 01:16:00 AM 51.6818 -34.2748 81° East 503 579 34,000  Level FlightAware Transoceanic
Sat 01:17:00 AM 51.7024 -34.0514 82° East 503 579 34,000  Level FlightAware Transoceanic
Sat 01:18:00 AM 51.7225 -33.8278 82° East 503 579 34,000  Level FlightAware Transoceanic
Sat 01:19:00 AM 51.7423 -33.6041 82° East 503 579 34,000  Level FlightAware Transoceanic
Sat 01:20:00 AM 51.7616 -33.3801 82° East 503 579 34,000  Level FlightAware Transoceanic
Sat 01:21:00 AM 51.7805 -33.1559 82° East 503 579 34,000  Level FlightAware Transoceanic
Sat 01:22:00 AM 51.7990 -32.9316 83° East 503 579 34,000  Level FlightAware Transoceanic
Sat 01:23:00 AM 51.8170 -32.7071 83° East 503 579 34,000  Level FlightAware Transoceanic
Sat 01:24:00 AM 51.8346 -32.4823 83° East 503 579 34,000  Level FlightAware Transoceanic
Sat 01:25:00 AM 51.8518 -32.2575 83° East 503 579 34,000  Level FlightAware Transoceanic
Sat 01:26:00 AM 51.8686 -32.0324 83° East 503 579 34,000  Level FlightAware Transoceanic
Sat 01:27:00 AM 51.8849 -31.8072 83° East 503 579 34,000  Level FlightAware Transoceanic
Sat 01:28:00 AM 51.9008 -31.5818 84° East 503 579 34,000  Level FlightAware Transoceanic
Sat 01:29:00 AM 51.9163 -31.3563 84° East 503 579 34,000  Level FlightAware Transoceanic
Sat 01:30:00 AM 51.9313 -31.1306 84° East 503 579 34,000  Level FlightAware Transoceanic
Sat 01:31:00 AM 51.9459 -30.9048 84° East 503 579 34,000  Level FlightAware Transoceanic
Sat 01:32:00 AM 51.9601 -30.6788 84° East 503 579 34,000  Level FlightAware Transoceanic
Sat 01:33:00 AM 51.9738 -30.4527 84° East 503 579 34,000  Level FlightAware Transoceanic
Sat 01:34:00 AM 51.9871 -30.2264 85° East 503 579 34,000  Level FlightAware Transoceanic
Sat 01:35:00 AM 51.9998 -30.0035 85° East  Level FlightAware Approximate
Sat 01:36:00 AM 52.0118 -29.7804 85° East  Level FlightAware Approximate
Sat 01:37:00 AM 52.0305 -29.7887 77° East  Level FlightAware Approximate
Sat 01:38:00 AM 52.0615 -29.5704 77° East  Level FlightAware Approximate
Sat 01:38:00 AM 52.0000 -30.0000 77° East 472 543 34,000  Level ETMS Enhanced Traffic Management System
Sat 01:39:00 AM 52.0922 -29.3517 77° East  Level FlightAware Approximate
Sat 01:40:00 AM 52.1225 -29.1327 77° East  Level FlightAware Approximate
Sat 01:41:00 AM 52.1523 -28.9135 77° East  Level FlightAware Approximate
Sat 01:42:00 AM 52.1817 -28.6939 78° East  Level FlightAware Approximate
Sat 01:43:00 AM 52.2108 -28.4741 78° East  Level FlightAware Approximate
Sat 01:44:00 AM 52.2562 -28.1231 78° East 472 543 34,000  Level FlightAware Transoceanic
Sat 01:45:00 AM 52.2828 -27.9132 78° East 472 543 34,000  Level FlightAware Transoceanic
Sat 01:46:00 AM 52.3091 -27.7031 79° East 472 543 34,000  Level FlightAware Transoceanic
Sat 01:47:00 AM 52.3349 -27.4928 79° East 472 543 34,000  Level FlightAware Transoceanic
Sat 01:48:00 AM 52.3605 -27.2822 79° East 472 543 34,000  Level FlightAware Transoceanic
Sat 01:49:00 AM 52.3856 -27.0714 79° East 472 543 34,000  Level FlightAware Transoceanic
Sat 01:50:00 AM 52.4103 -26.8603 79° East 472 543 34,000  Level FlightAware Transoceanic
Sat 01:51:00 AM 52.4347 -26.6490 79° East 472 543 34,000  Level FlightAware Transoceanic
Sat 01:52:00 AM 52.4587 -26.4375 80° East 472 543 34,000  Level FlightAware Transoceanic
Sat 01:53:00 AM 52.4823 -26.2257 80° East 472 543 34,000  Level FlightAware Transoceanic
Sat 01:54:00 AM 52.5056 -26.0137 80° East 472 543 34,000  Level FlightAware Transoceanic
Sat 01:55:00 AM 52.5284 -25.8015 80° East 472 543 34,000  Level FlightAware Transoceanic
Sat 01:56:00 AM 52.5509 -25.5890 80° East 472 543 34,000  Level FlightAware Transoceanic
Sat 01:57:00 AM 52.5730 -25.3764 80° East 472 543 34,000  Level FlightAware Transoceanic
Sat 01:58:00 AM 52.5947 -25.1635 81° East 472 543 34,000  Level FlightAware Transoceanic
Sat 01:59:00 AM 52.6161 -24.9505 81° East 472 543 34,000  Level FlightAware Transoceanic
Sat 02:00:00 AM 52.6370 -24.7372 81° East 472 543 34,000  Level FlightAware Transoceanic
Sat 02:01:00 AM 52.6576 -24.5237 81° East 472 543 34,000  Level FlightAware Transoceanic
Sat 02:02:00 AM 52.6778 -24.3100 81° East 472 543 34,000  Level FlightAware Transoceanic
Sat 02:03:00 AM 52.6976 -24.0961 81° East 472 543 34,000  Level FlightAware Transoceanic
Sat 02:04:00 AM 52.7170 -23.8821 82° East 472 543 34,000  Level FlightAware Transoceanic
Sat 02:05:00 AM 52.7360 -23.6678 82° East 472 543 34,000  Level FlightAware Transoceanic
Sat 02:06:00 AM 52.7547 -23.4534 82° East 472 543 34,000  Level FlightAware Transoceanic
Sat 02:07:00 AM 52.7729 -23.2387 82° East 472 543 34,000  Level FlightAware Transoceanic
Sat 02:08:00 AM 52.7908 -23.0239 82° East 472 543 34,000  Level FlightAware Transoceanic
Sat 02:09:00 AM 52.8083 -22.8090 82° East 472 543 34,000  Level FlightAware Transoceanic
Sat 02:10:00 AM 52.8254 -22.5938 83° East 472 543 34,000  Level FlightAware Transoceanic
Sat 02:11:00 AM 52.8421 -22.3785 83° East 472 543 34,000  Level FlightAware Transoceanic
Sat 02:12:00 AM 52.8584 -22.1630 83° East 472 543 34,000  Level FlightAware Transoceanic
Sat 02:13:00 AM 52.8743 -21.9474 83° East 472 543 34,000  Level FlightAware Transoceanic
Sat 02:14:00 AM 52.8899 -21.7316 83° East 472 543 34,000  Level FlightAware Transoceanic
Sat 02:15:00 AM 52.9050 -21.5156 83° East 472 543 34,000  Level FlightAware Transoceanic
Sat 02:16:00 AM 52.9198 -21.2995 84° East 472 543 34,000  Level FlightAware Transoceanic
Sat 02:17:00 AM 52.9341 -21.0833 84° East 472 543 34,000  Level FlightAware Transoceanic
Sat 02:18:00 AM 52.9481 -20.8669 84° East 472 543 34,000  Level FlightAware Transoceanic
Sat 02:19:00 AM 52.9617 -20.6504 84° East 472 543 34,000  Level FlightAware Transoceanic
Sat 02:20:00 AM 52.9748 -20.4337 84° East 472 543 34,000  Level FlightAware Transoceanic
Sat 02:21:00 AM 52.9876 -20.2169 84° East 472 543 34,000 -25 Level FlightAware Transoceanic
Sat 02:22:00 AM 53.0007 -19.9882 84° East  Level FlightAware Approximate
Sat 02:23:00 AM 52.9999 -19.9762 90° East  Level FlightAware Approximate
Sat 02:24:00 AM 52.9991 -19.7464 90° East  Level FlightAware Approximate
Sat 02:25:00 AM 52.9979 -19.5166 90° East  Level FlightAware Approximate
Sat 02:26:00 AM 52.9962 -19.2869 91° East  Level FlightAware Approximate
Sat 02:27:00 AM 52.9941 -19.0571 91° East  Level FlightAware Approximate
Sat 02:28:00 AM 52.9915 -18.8274 91° East  Level FlightAware Approximate
Sat 02:29:00 AM 52.9885 -18.5977 91° East  Level FlightAware Approximate
Sat 02:30:00 AM 52.9850 -18.3680 91° East  Level FlightAware Approximate
Sat 02:31:00 AM 52.9811 -18.1384 92° East  Level FlightAware Approximate
Sat 02:32:00 AM 52.9768 -17.9088 92° East  Level FlightAware Approximate
Sat 02:33:00 AM 52.9720 -17.6793 92° East  Level FlightAware Approximate
Sat 02:34:00 AM 52.9668 -17.4498 92° East  Level FlightAware Approximate
Sat 02:35:00 AM 52.9611 -17.2204 92° East  Level FlightAware Approximate
Sat 02:36:00 AM 52.9550 -16.9910 92° East  Level FlightAware Approximate
Sat 02:37:00 AM 52.9485 -16.7617 93° East  Level FlightAware Approximate
Sat 02:38:00 AM 52.9415 -16.5325 93° East  Level FlightAware Approximate
Sat 02:39:00 AM 52.9341 -16.3034 93° East  Level FlightAware Approximate
Sat 02:40:00 AM 52.9262 -16.0743 93° East  Level FlightAware Approximate
Sat 02:41:00 AM 52.9179 -15.8454 93° East  Level FlightAware Approximate
Sat 02:42:00 AM 52.9091 -15.6165 94° East  Level FlightAware Approximate
Sat 02:43:00 AM 52.8999 -15.3877 94° East  Level FlightAware Approximate
Sat 02:44:00 AM 52.8903 -15.1590 94° East  Level FlightAware Approximate
Sat 02:45:00 AM 52.8805 -14.9304 94° East  Level FlightAware Approximate
Sat 02:46:00 AM 52.8709 -14.7018 94° East  Level FlightAware Approximate
Sat 02:47:00 AM 52.8609 -14.4733 94° East  Level FlightAware Approximate
Sat 02:48:00 AM 52.8504 -14.2449 94° East  Level FlightAware Approximate
Sat 02:49:00 AM 52.8395 -14.0167 94° East  Level FlightAware Approximate
Sat 02:50:00 AM 52.8282 -13.7885 95° East  Level FlightAware Approximate
Sat 02:51:00 AM 52.8164 -13.5605 95° East  Level FlightAware Approximate
Sat 02:52:00 AM 52.8042 -13.3326 95° East  Level FlightAware Approximate
Sat 02:53:00 AM 52.7916 -13.1048 95° East  Level FlightAware Approximate
Sat 02:54:00 AM 52.7785 -12.8771 95° East  Level FlightAware Approximate
Sat 02:55:00 AM 52.7650 -12.6496 96° East  Level FlightAware Approximate
Sat 02:56:00 AM 52.7510 -12.4223 96° East  Level FlightAware Approximate
Sat 02:57:00 AM 52.7366 -12.1951 96° East  Level FlightAware Approximate
Sat 02:58:00 AM 52.7218 -11.9680 96° East  Level FlightAware Approximate
Sat 02:59:00 AM 52.7066 -11.7411 96° East  Level FlightAware Approximate
Sat 03:00:00 AM 52.6909 -11.5144 96° East  Level FlightAware Approximate
Sat 03:00:07 AM 52.7760 -11.5030 96° East 515 593 33,000  Level FlightAware ADS-B
Sat 03:00:47 AM 52.7660 -11.3710 97° East 515 593 33,000  Level FlightAware ADS-B
Sat 03:01:32 AM 52.7440 -11.1770 101° East 506 582 33,000  Level FlightAware ADS-B
Sat 03:02:12 AM 52.7300 -11.0220 98° East 501 577 33,000  Level FlightAware ADS-B
Sat 03:02:52 AM 52.7150 -10.8740 99° East 497 572 33,000 -75 Level FlightAware ADS-B
Sat 03:03:32 AM 52.7010 -10.7250 99° East 494 568 32,900 -600 Descending FlightAware ADS-B
Sat 03:04:22 AM 52.6820 -10.5390 99° East 489 563 32,100 -1,000 Descending FlightAware ADS-B
Sat 03:05:02 AM 52.6660 -10.3780 99° East 484 557 31,400 -943 Descending FlightAware ADS-B
Sat 03:05:32 AM 52.6560 -10.2800 100° East 483 556 31,000 -343 Descending FlightAware ADS-B
Sat 03:06:12 AM 52.6420 -10.1390 99° East 481 554 31,000  Level FlightAware ADS-B
Sat 03:06:52 AM 52.6270 -9.9960 100° East 476 548 31,000  Level FlightAware ADS-B
Sat 03:07:37 AM 52.6100 -9.8360 100° East 473 544 31,000  Level FlightAware ADS-B
Sat 03:08:17 AM 52.5950 -9.6970 100° East 471 542 31,000  Level FlightAware ADS-B
Sat 03:09:02 AM 52.5780 -9.5380 100° East 470 541 31,000  Level FlightAware ADS-B
Sat 03:09:42 AM 52.5620 -9.3960 100° East 471 542 31,000  Level FlightAware ADS-B
Sat 03:10:27 AM 52.5440 -9.2380 101° East 470 541 31,000  Level FlightAware ADS-B
Sat 03:11:07 AM 52.5290 -9.0980 100° East 470 541 31,000  Level FlightAware ADS-B
Sat 03:11:47 AM 52.5130 -8.9570 101° East 469 540 31,000  Level FlightAware ADS-B
Sat 03:12:27 AM 52.4970 -8.8170 101° East 470 541 31,000  Level FlightAware ADS-B
Sat 03:13:07 AM 52.4800 -8.6780 101° East 471 542 31,000  Level FlightAware ADS-B
Sat 03:13:52 AM 52.4620 -8.5180 100° East 474 545 31,000  Level FlightAware ADS-B
Sat 03:14:37 AM 52.4430 -8.3590 101° East 475 547 31,000  Level FlightAware ADS-B
Sat 03:15:17 AM 52.4260 -8.2180 101° East 476 548 31,000  Level FlightAware ADS-B
Sat 03:16:02 AM 52.4060 -8.0580 102° East 477 549 31,000  Level FlightAware ADS-B
Sat 03:16:42 AM 52.3870 -7.9050 101° East 479 551 31,000  Level FlightAware ADS-B
Sat 03:17:27 AM 52.3680 -7.7460 101° East 479 551 31,000  Level FlightAware ADS-B
Sat 03:18:07 AM 52.3500 -7.6070 102° East 479 551 31,000  Level FlightAware ADS-B
Sat 03:18:47 AM 52.3330 -7.4690 101° East 481 554 31,000  Level FlightAware ADS-B
Sat 03:19:32 AM 52.3110 -7.3020 102° East 481 554 31,000  Level FlightAware ADS-B
Sat 03:20:12 AM 52.2920 -7.1580 102° East 481 554 31,000  Level FlightAware ADS-B
Sat 03:20:52 AM 52.2750 -7.0220 101° East 482 555 31,000  Level FlightAware ADS-B
Sat 03:21:37 AM 52.2530 -6.8580 102° East 483 556 31,000  Level FlightAware ADS-B
Sat 03:22:17 AM 52.2340 -6.7200 103° East 483 556 31,000  Level FlightAware ADS-B
Sat 03:22:57 AM 52.2140 -6.5730 102° East 484 557 31,000  Level FlightAware ADS-B
Sat 03:23:42 AM 52.1930 -6.4150 102° East 485 558 31,000  Level FlightAware ADS-B
Sat 03:24:22 AM 52.1680 -6.2740 106° East 494 568 31,000  Level FlightAware ADS-B
Sat 03:25:07 AM 52.1330 -6.1330 112° Southeast 495 570 31,000  Level FlightAware ADS-B
Sat 03:25:47 AM 52.0950 -5.9840 112° Southeast 496 571 31,000  Level FlightAware ADS-B
Sat 03:26:32 AM 52.0550 -5.8270 112° Southeast 498 573 31,000  Level FlightAware ADS-B
Sat 03:27:12 AM 52.0190 -5.6880 113° Southeast 500 575 31,000  Level FlightAware ADS-B
Sat 03:27:57 AM 51.9630 -5.5510 124° Southeast 498 573 31,000  Level FlightAware ADS-B
Sat 03:28:37 AM 51.9110 -5.4270 124° Southeast 495 570 31,000  Level FlightAware ADS-B
Sat 03:29:17 AM 51.8590 -5.3050 125° Southeast 493 567 31,000  Level FlightAware ADS-B
Sat 03:30:02 AM 51.8010 -5.1680 124° Southeast 494 568 31,000  Level FlightAware ADS-B
Sat 03:30:42 AM 51.7490 -5.0480 125° Southeast 493 567 31,000  Level FlightAware ADS-B
Sat 03:31:25 AM 51.6930 -4.9220 126° Southeast 494 568 31,000  Level FlightAware ADS-B
Sat 03:32:05 AM 51.6440 -4.7970 122° Southeast 487 560 31,000  Level FlightAware ADS-B
Sat 03:32:45 AM 51.6260 -4.6590 102° East 463 533 31,000  Level FlightAware ADS-B
Sat 03:33:30 AM 51.6340 -4.5090 85° East 457 526 31,000  Level FlightAware ADS-B
Sat 03:34:10 AM 51.6400 -4.3820 86° East 457 526 31,000  Level FlightAware ADS-B
Sat 03:34:50 AM 51.6470 -4.2400 85° East 457 526 31,000  Level FlightAware ADS-B
Sat 03:35:35 AM 51.6550 -4.0880 85° East 457 526 31,000  Level FlightAware ADS-B
Sat 03:36:15 AM 51.6630 -3.9530 84° East 456 525 31,000 -918 Level FlightAware ADS-B
Sat 03:37:00 AM 51.6710 -3.8010 85° East 452 520 29,700 -2,471 Descending FlightAware ADS-B
Sat 03:37:40 AM 51.6820 -3.6670 82° East 451 519 27,500 -2,625 Descending FlightAware ADS-B
Sat 03:38:20 AM 51.6950 -3.5400 81° East 435 501 26,200 -1,482 Descending FlightAware ADS-B
Sat 03:39:05 AM 51.6930 -3.3940 91° East 434 499 25,400 -847 Descending FlightAware ADS-B
Sat 03:39:45 AM 51.6610 -3.2760 114° Southeast 427 491 25,000 -282 Descending FlightAware ADS-B
Sat 03:40:30 AM 51.6250 -3.1480 114° Southeast 426 490 25,000 -141 Level FlightAware ADS-B
Sat 03:41:10 AM 51.5930 -3.0340 114° Southeast 422 486 24,800 -975 Descending FlightAware ADS-B
Sat 03:41:50 AM 51.5680 -2.9130 108° East 407 468 23,700 -1,482 Descending FlightAware ADS-B
Sat 03:42:35 AM 51.5500 -2.7830 103° East 405 466 22,700 -1,341 Descending FlightAware ADS-B
Sat 03:43:15 AM 51.5330 -2.6630 103° East 400 460 21,800 -1,341 Descending FlightAware ADS-B
Sat 03:44:00 AM 51.5140 -2.5340 103° East 390 449 20,800 -1,271 Descending FlightAware ADS-B
Sat 03:44:40 AM 51.4990 -2.4230 102° East 388 447 20,000 -1,275 Descending FlightAware ADS-B
Sat 03:45:20 AM 51.4830 -2.3150 103° East 385 443 19,100 -1,271 Descending FlightAware ADS-B
Sat 03:46:05 AM 51.4650 -2.1920 103° East 378 435 18,200 -1,275 Descending FlightAware ADS-B
Sat 03:46:40 AM 51.4500 -2.0920 103° East 372 428 17,400 -1,341 Descending FlightAware ADS-B
Sat 03:47:30 AM 51.4310 -1.9600 103° East 364 419 16,300 -1,200 Descending FlightAware ADS-B
Sat 03:48:10 AM 51.4170 -1.8640 103° East 360 414 15,600 -1,050 Descending FlightAware ADS-B
Sat 03:48:50 AM 51.4000 -1.7520 104° East 357 411 14,900 -988 Descending FlightAware ADS-B
Sat 03:49:35 AM 51.3830 -1.6420 104° East 350 403 14,200 -635 Descending FlightAware ADS-B
Sat 03:50:15 AM 51.3680 -1.5400 103° East 348 400 14,000 -141 Descending FlightAware ADS-B
Sat 03:51:00 AM 51.3510 -1.4260 103° East 350 403 14,000  Level FlightAware ADS-B
Sat 03:51:40 AM 51.3360 -1.3230 103° East 350 403 14,000  Level FlightAware ADS-B
Sat 03:52:20 AM 51.3220 -1.2310 104° East 350 403 14,000 -635 Level FlightAware ADS-B
Sat 03:53:05 AM 51.3120 -1.1080 97° East 341 392 13,100 -800 Descending FlightAware ADS-B
Sat 03:53:35 AM 51.3120 -1.0380 90° East 318 366 13,000 -86 Descending FlightAware ADS-B
Sat 03:54:15 AM 51.3110 -0.9490 91° East 276 318 13,000 -282 Level FlightAware ADS-B
Sat 03:55:00 AM 51.3100 -0.8630 91° East 259 298 12,600 -776 Descending FlightAware ADS-B
Sat 03:55:40 AM 51.3090 -0.7880 91° East 251 289 11,900 -975 Descending FlightAware ADS-B
Sat 03:56:20 AM 51.3080 -0.7140 91° East 251 289 11,300 -635 Descending FlightAware ADS-B
Sat 03:57:05 AM 51.3050 -0.6300 93° East 246 283 11,000 -212 Descending FlightAware ADS-B
Sat 03:57:45 AM 51.3030 -0.5570 92° East 250 288 11,000  Level FlightAware ADS-B
Sat 03:58:20 AM 51.3010 -0.4980 93° East 247 284 11,000  Level FlightAware ADS-B
Sat 03:58:40 AM 51.3080 -0.4660 71° East 237 273 11,000 -686 Level FlightAware ADS-B
Sat 03:58:55 AM 51.3230 -0.4500 34° Northeast 239 275 10,600 -1,440 Descending FlightAware ADS-B
Sat 03:59:05 AM 51.3320 -0.4480 North 242 278 10,400 -1,400 Descending FlightAware ADS-B
Sat 03:59:25 AM 51.3490 -0.4560 344° North 247 284 9,900 -1,886 Descending FlightAware ADS-B
Sat 03:59:40 AM 51.3640 -0.4820 313° West 254 292 9,300 -1,800 Descending FlightAware ADS-B
Sat 04:00:35 AM 51.3640 -0.5790 270° West 252 290 7,800 -1,768 Descending FlightAware ADS-B
Sat 04:01:15 AM 51.3620 -0.6570 268° West 249 287 6,500 -1,360 Descending FlightAware ADS-B
Sat 04:01:50 AM 51.3610 -0.6950 268° West 247 284 6,100 -1,200 Descending FlightAware ADS-B
Sat 04:02:15 AM 51.3660 -0.7720 276° West 238 274 5,300 -1,418 Descending FlightAware ADS-B
Sat 04:02:45 AM 51.3710 -0.8230 279° West 228 262 4,800 -764 Descending FlightAware ADS-B
Sat 04:03:10 AM 51.3760 -0.8610 282° West 209 241 4,600 -480 Descending FlightAware ADS-B
Sat 04:03:35 AM 51.3850 -0.8970 292° West 194 223 4,400 -667 Descending FlightAware ADS-B
Sat 04:03:55 AM 51.3950 -0.9170 309° West 173 199 4,100 -1,000 Descending FlightAware ADS-B
Sat 04:04:05 AM 51.4020 -0.9200 345° North 168 193 3,900 -600 Descending FlightAware ADS-B
Sat 04:04:35 AM 51.4240 -0.9240 354° North 172 198 3,700 -300 Descending FlightAware ADS-B
Sat 04:04:45 AM 51.4330 -0.9250 356° North 175 201 3,700  Level FlightAware ADS-B
Sat 04:05:15 AM 51.4490 -0.9050 38° Northeast 169 194 3,700 -200 Level FlightAware ADS-B
Sat 04:05:45 AM 51.4620 -0.8710 58° Northeast 162 186 3,500 -400 Descending FlightAware ADS-B
Sat 04:06:15 AM 51.4740 -0.8400 58° Northeast 161 185 3,300 -450 Descending FlightAware ADS-B
Sat 04:06:25 AM 51.4760 -0.8290 74° East 164 189 3,200 -400 Descending FlightAware ADS-B
Sat 04:06:30 AM 51.4760 -0.8230 90° East 165 190 3,200 -267 Level FlightAware ADS-B
Sat 04:07:10 AM 51.4760 -0.7740 90° East 166 191 3,000 -225 Descending FlightAware ADS-B
Sat 04:07:50 AM 51.4760 -0.7230 90° East 167 192 2,900 -327 Descending FlightAware ADS-B
Sat 04:08:05 AM 51.4760 -0.7030 90° East 169 194 2,700 -800 Descending FlightAware ADS-B
Sat 04:08:35 AM 51.4770 -0.6700 87° East 159 183 2,300 -873 Descending FlightAware ADS-B
Sat 04:09:00 AM 51.4770 -0.6430 90° East 149 171 1,900 -982 Descending FlightAware ADS-B
Sat 04:09:30 AM 51.4770 -0.6050 90° East 149 171 1,400 -873 Descending FlightAware ADS-B
Sat 04:09:55 AM 51.4770 -0.5790 90° East 146 168 1,100 -750 Descending FlightAware ADS-B
Sat 04:10:10 AM 51.4770 -0.5630 90° East 144 166 900 -800 Descending FlightAware ADS-B
Sat 04:10:40 AM 51.4770 -0.5330 90° East 128 147 500 -800 Descending FlightAware ADS-B
Sat 04:10:55 AM 51.4770 -0.5180 90° East 131 151 300 -800 Descending FlightAware ADS-B
Sat 04:11:20 AM 51.4770 -0.4950 90° East 129 148 -720 Descending FlightAware ADS-B
Sat 04:11:45 AM 51.4770 -0.4730 90° East 129 148  Level FlightAware ADS-B

Login

Don't have an account? Register now (free) for customized features, flight alerts, and more!